createdAt,value
2023-01-17T00:02:55.394Z,28.50
2023-01-17T00:08:07.680Z,25.80
2023-01-17T00:13:02.897Z,25.95
2023-01-17T00:17:56.524Z,28.33
2023-01-17T00:23:08.383Z,27.58
2023-01-17T00:28:01.850Z,28.65
2023-01-17T00:32:54.554Z,26.25
2023-01-17T00:37:48.012Z,26.52
2023-01-17T00:42:41.207Z,24.65
2023-01-17T00:47:55.212Z,26.08
2023-01-17T00:53:08.669Z,27.58
2023-01-17T00:59:11.435Z,27.08
2023-01-17T01:04:23.660Z,26.60
2023-01-17T01:09:35.178Z,24.95
2023-01-17T01:14:47.024Z,25.05
2023-01-17T01:19:58.835Z,23.52
2023-01-17T01:25:11.374Z,27.20
2023-01-17T01:30:23.913Z,29.65
2023-01-17T01:35:17.316Z,29.85
2023-01-17T01:40:14.767Z,31.13
2023-01-17T01:45:47.860Z,30.67
2023-01-17T01:50:41.611Z,29.60
2023-01-17T01:55:41.468Z,31.58
2023-01-17T02:00:35.434Z,32.33
2023-01-17T02:05:29.103Z,28.13
2023-01-17T02:10:22.780Z,31.80
2023-01-17T02:15:15.937Z,28.15
2023-01-17T02:20:34.168Z,28.52
2023-01-17T02:25:51.341Z,28.50
2023-01-17T02:30:49.863Z,28.85
2023-01-17T02:35:42.231Z,27.95
2023-01-17T02:40:57.588Z,29.17
2023-01-17T02:45:50.298Z,32.83
2023-01-17T02:51:10.925Z,29.55
2023-01-17T02:56:51.461Z,30.20
2023-01-17T03:02:34.604Z,29.42
2023-01-17T03:07:29.096Z,25.88
2023-01-17T03:12:23.039Z,27.67
2023-01-17T03:17:16.301Z,28.80
2023-01-17T03:22:09.449Z,27.73
2023-01-17T03:27:02.925Z,31.08
2023-01-17T03:31:56.459Z,31.25
2023-01-17T03:36:50.400Z,27.50
2023-01-17T03:41:44.044Z,28.67
2023-01-17T03:46:37.773Z,31.55
2023-01-17T03:51:32.528Z,28.98
2023-01-17T03:56:26.762Z,31.20
2023-01-17T04:01:21.325Z,29.17
2023-01-17T04:06:14.901Z,28.90
2023-01-17T04:11:07.764Z,29.10
2023-01-17T04:16:01.064Z,33.75
2023-01-17T04:20:55.030Z,34.03
2023-01-17T04:25:48.843Z,31.35
2023-01-17T04:30:41.949Z,29.45
2023-01-17T04:35:35.185Z,30.73
2023-01-17T04:40:29.802Z,30.83
2023-01-17T04:45:22.619Z,30.48
2023-01-17T04:50:15.107Z,31.63
2023-01-17T04:55:09.597Z,34.90
2023-01-17T05:00:03.430Z,36.00
2023-01-17T05:04:56.931Z,35.95
2023-01-17T05:09:49.982Z,36.08
2023-01-17T05:14:43.752Z,30.92
2023-01-17T05:19:37.519Z,35.65
2023-01-17T05:24:31.836Z,35.10
2023-01-17T05:29:25.127Z,34.40
2023-01-17T05:34:18.356Z,32.78
2023-01-17T05:39:11.534Z,31.70
2023-01-17T05:44:05.287Z,29.58
2023-01-17T05:48:59.541Z,32.05
2023-01-17T05:53:53.517Z,32.85
2023-01-17T05:58:47.760Z,32.45
2023-01-17T06:03:41.135Z,33.30
2023-01-17T06:08:33.825Z,34.00
2023-01-17T06:13:27.298Z,31.38
2023-01-17T06:18:19.639Z,30.70
2023-01-17T06:23:14.150Z,31.05
2023-01-17T06:28:10.279Z,31.45
2023-01-17T06:33:04.460Z,32.05
2023-01-17T06:37:58.553Z,31.08
2023-01-17T06:42:52.079Z,31.40
2023-01-17T06:47:45.900Z,32.85
2023-01-17T06:52:39.719Z,35.55
2023-01-17T06:57:32.977Z,32.08
2023-01-17T07:02:26.767Z,35.13
2023-01-17T07:07:20.427Z,34.75
2023-01-17T07:12:15.149Z,34.58
2023-01-17T07:17:08.349Z,36.97
2023-01-17T07:22:01.098Z,35.13
2023-01-17T07:26:55.016Z,35.58
2023-01-17T07:31:50.032Z,36.22
2023-01-17T07:36:43.848Z,32.17
2023-01-17T07:41:41.676Z,36.38
2023-01-17T07:46:35.284Z,33.35
2023-01-17T07:51:28.481Z,29.23
2023-01-17T07:56:21.630Z,29.65
2023-01-17T08:01:15.031Z,31.23
2023-01-17T08:06:24.670Z,29.38
2023-01-17T08:11:18.632Z,31.88
2023-01-17T08:16:12.451Z,29.95
2023-01-17T08:21:07.640Z,30.35
2023-01-17T08:26:01.990Z,26.98
2023-01-17T08:30:55.689Z,30.23
2023-01-17T08:35:56.491Z,30.35
2023-01-17T08:40:50.205Z,31.73
2023-01-17T08:45:47.824Z,29.33
2023-01-17T08:50:41.363Z,31.98
2023-01-17T08:55:39.859Z,34.13
2023-01-17T09:00:33.438Z,34.20
2023-01-17T09:05:27.086Z,29.35
2023-01-17T09:10:20.934Z,30.42
2023-01-17T09:15:18.220Z,34.83
2023-01-17T09:20:13.378Z,34.60
2023-01-17T09:25:09.086Z,34.10
2023-01-17T09:30:02.422Z,35.25
2023-01-17T09:35:01.384Z,34.30
2023-01-17T09:39:54.828Z,35.30
2023-01-17T09:44:51.919Z,34.60
2023-01-17T09:49:47.234Z,34.65
2023-01-17T09:54:42.163Z,34.33
2023-01-17T09:59:45.427Z,36.40
2023-01-17T10:05:05.093Z,35.70
2023-01-17T10:10:18.108Z,33.78
2023-01-17T10:15:52.844Z,33.25
2023-01-17T10:21:11.594Z,35.40
2023-01-17T10:26:19.690Z,32.30
2023-01-17T10:31:21.773Z,31.17
2023-01-17T10:36:37.229Z,32.10
2023-01-17T10:41:33.378Z,32.22
2023-01-17T10:46:31.402Z,31.10
2023-01-17T10:52:25.877Z,31.90
2023-01-17T10:57:24.502Z,30.15
2023-01-17T11:02:43.474Z,32.47
2023-01-17T11:07:40.051Z,31.95
2023-01-17T11:12:44.865Z,31.35
2023-01-17T11:17:53.854Z,30.92
2023-01-17T11:23:05.316Z,33.47
2023-01-17T11:28:30.615Z,29.60
2023-01-17T11:33:56.960Z,24.83
2023-01-17T11:38:58.764Z,26.75
2023-01-17T11:43:55.273Z,27.42
2023-01-17T11:49:10.402Z,27.13
2023-01-17T11:54:30.443Z,26.17
2023-01-17T11:59:35.414Z,23.95
2023-01-17T12:04:31.848Z,23.92
2023-01-17T12:09:27.207Z,21.30
2023-01-17T12:14:49.164Z,22.63
2023-01-17T12:20:06.225Z,20.02
2023-01-17T12:25:03.806Z,21.13
2023-01-17T12:30:21.780Z,22.55
2023-01-17T12:35:27.948Z,20.88
2023-01-17T12:40:23.992Z,19.30
2023-01-17T12:45:25.096Z,18.38
2023-01-17T12:50:47.865Z,19.17
2023-01-17T12:55:51.471Z,17.60
2023-01-17T13:00:47.826Z,17.63
2023-01-17T13:05:45.523Z,16.67
2023-01-17T13:11:02.601Z,19.67
2023-01-17T13:16:11.300Z,17.60
2023-01-17T13:21:28.358Z,17.90
2023-01-17T13:26:45.485Z,13.63
2023-01-17T13:31:45.158Z,14.73
2023-01-17T13:37:17.079Z,14.07
2023-01-17T13:42:42.225Z,12.43
2023-01-17T13:47:41.002Z,12.50
2023-01-17T13:52:34.869Z,12.20
2023-01-17T13:57:30.357Z,13.13
2023-01-17T14:02:32.575Z,10.98
2023-01-17T14:07:27.360Z,11.65
2023-01-17T14:12:19.840Z,11.00
2023-01-17T14:17:25.846Z,11.50
2023-01-17T14:22:18.457Z,10.20
2023-01-17T14:27:17.228Z,11.55
2023-01-17T14:32:23.926Z,9.98
2023-01-17T14:37:21.209Z,9.20
2023-01-17T14:42:34.268Z,11.05
2023-01-17T14:47:30.805Z,10.80
2023-01-17T14:52:24.655Z,10.27
2023-01-17T14:57:29.626Z,9.65
2023-01-17T15:02:23.407Z,8.43
2023-01-17T15:07:16.929Z,9.52
2023-01-17T15:12:12.135Z,9.88
2023-01-17T15:17:13.459Z,8.43
2023-01-17T15:22:06.420Z,8.45
2023-01-17T15:26:58.920Z,7.32
2023-01-17T15:31:58.324Z,8.40
2023-01-17T15:36:58.110Z,6.55
2023-01-17T15:41:54.906Z,7.43
2023-01-17T15:46:48.084Z,6.18
2023-01-17T15:51:43.054Z,7.35
2023-01-17T15:56:36.956Z,7.55
2023-01-17T16:01:30.354Z,8.18
2023-01-17T16:06:36.469Z,7.13
2023-01-17T16:11:30.074Z,9.23
2023-01-17T16:16:27.138Z,7.57
2023-01-17T16:21:45.711Z,7.65
2023-01-17T16:26:38.327Z,8.50
2023-01-17T16:31:31.896Z,9.65
2023-01-17T16:36:24.648Z,8.38
2023-01-17T16:41:18.306Z,7.93
2023-01-17T16:46:13.141Z,7.47
2023-01-17T16:51:08.112Z,7.28
2023-01-17T16:56:10.336Z,7.30
2023-01-17T17:01:03.858Z,5.70
2023-01-17T17:05:59.831Z,5.97
2023-01-17T17:10:52.675Z,6.22
2023-01-17T17:15:46.343Z,7.20
2023-01-17T17:20:39.544Z,7.55
2023-01-17T17:25:33.755Z,6.93
2023-01-17T17:30:28.042Z,7.85
2023-01-17T17:35:21.982Z,9.38
2023-01-17T17:40:14.788Z,11.20
2023-01-17T17:45:09.809Z,7.57
2023-01-17T17:50:02.845Z,6.60
2023-01-17T17:54:58.357Z,7.18
2023-01-17T17:59:51.641Z,6.13
2023-01-17T18:04:45.060Z,5.88
2023-01-17T18:09:39.763Z,4.95
2023-01-17T18:14:33.151Z,5.38
2023-01-17T18:19:27.752Z,6.63
2023-01-17T18:24:22.332Z,7.15
2023-01-17T18:29:17.051Z,8.35
2023-01-17T18:34:12.785Z,7.28
2023-01-17T18:39:12.980Z,8.48
2023-01-17T18:44:06.312Z,7.35
2023-01-17T18:48:59.939Z,8.02
2023-01-17T18:53:53.583Z,8.23
2023-01-17T18:58:48.606Z,7.28
2023-01-17T19:03:43.922Z,7.78
2023-01-17T19:08:36.909Z,9.52
2023-01-17T19:13:29.896Z,9.82
2023-01-17T19:18:23.776Z,9.00
2023-01-17T19:23:16.774Z,9.10
2023-01-17T19:28:10.580Z,9.60
2023-01-17T19:33:04.470Z,9.95
2023-01-17T19:37:58.331Z,8.73
2023-01-17T19:42:51.573Z,8.77
2023-01-17T19:47:45.133Z,9.65
2023-01-17T19:52:37.930Z,10.02
2023-01-17T19:57:35.026Z,10.65
2023-01-17T20:02:28.933Z,9.55
2023-01-17T20:07:23.259Z,9.90
2023-01-17T20:12:16.717Z,11.23
2023-01-17T20:17:10.825Z,11.18
2023-01-17T20:22:06.228Z,12.13
2023-01-17T20:26:59.069Z,12.52
2023-01-17T20:31:52.780Z,12.55
2023-01-17T20:36:46.017Z,14.85
2023-01-17T20:41:41.609Z,12.55
2023-01-17T20:46:40.418Z,11.27
2023-01-17T20:51:40.849Z,11.98
2023-01-17T20:56:38.264Z,11.45
2023-01-17T21:01:32.234Z,14.00
2023-01-17T21:06:25.777Z,12.23
2023-01-17T21:11:21.784Z,19.80
2023-01-17T21:16:17.147Z,11.85
2023-01-17T21:21:14.343Z,9.77
2023-01-17T21:26:10.060Z,10.43
2023-01-17T21:31:29.359Z,9.15
2023-01-17T21:36:24.206Z,8.95
2023-01-17T21:41:17.451Z,8.93
2023-01-17T21:46:09.763Z,12.73
2023-01-17T21:51:07.172Z,17.90
2023-01-17T21:56:23.881Z,17.80
2023-01-17T22:01:21.890Z,19.30
2023-01-17T22:06:15.599Z,20.10
2023-01-17T22:11:14.421Z,17.92
2023-01-17T22:16:11.180Z,19.02
2023-01-17T22:21:09.229Z,17.95
2023-01-17T22:26:22.042Z,19.23
2023-01-17T22:31:20.834Z,19.23
2023-01-17T22:41:11.451Z,19.38
2023-01-17T22:46:10.304Z,18.20
2023-01-17T22:51:05.351Z,19.15
2023-01-17T22:56:03.174Z,17.42
2023-01-17T23:01:03.904Z,19.17
2023-01-17T23:06:04.896Z,18.90
2023-01-17T23:11:16.965Z,17.50
2023-01-17T23:16:28.993Z,19.08
2023-01-17T23:21:25.483Z,16.50
2023-01-17T23:26:19.112Z,16.98
2023-01-17T23:31:12.873Z,18.67
2023-01-17T23:36:09.513Z,18.05
2023-01-17T23:41:21.450Z,20.25
2023-01-17T23:46:14.547Z,17.85
2023-01-17T23:51:09.133Z,18.73
2023-01-17T23:56:19.024Z,18.83
